Terminal Aerodrome Forecast
Issued by NWS

Home | Current Version | Previous Version | Text Only | Print | Product List | Glossary On
Versions: 1 2 3 4 5 6 7 8 9 10 11 12 13 14 15 16 17 18
795
FTUS42 KTAE 290520
TAFVLD
TAF
KVLD 290520Z 2906/3006 09004KT P6SM SCT060 BKN120
     FM291400 14006KT P6SM -RA BKN025
     FM292000 14005KT 3SM TSRA BKN035CB
     FM300300 13003KT P6SM BKN040 OVC070=

USA.gov is the U.S. government's official web portal to all federal, state and local government web resources and services.